createdAt,value
2017-08-01T21:10:58.395Z,26.53
2017-08-01T21:13:25.953Z,26.43
2017-08-01T21:18:04.337Z,26.55
2017-08-01T21:20:31.942Z,26.43
2017-08-01T21:22:59.507Z,26.34
2017-08-01T21:25:27.053Z,26.32
2017-08-01T21:27:54.616Z,26.24
2017-08-01T21:30:22.239Z,26.21
2017-08-01T21:32:49.766Z,26.19
2017-08-01T21:35:17.328Z,26.21
2017-08-01T21:37:44.870Z,26.27
2017-08-01T21:40:12.430Z,26.21
2017-08-01T21:42:40.022Z,26.10
2017-08-01T21:45:07.571Z,26.19
2017-08-01T21:47:35.098Z,26.27
2017-08-01T21:50:02.720Z,26.28
2017-08-01T21:52:30.257Z,26.33
2017-08-01T21:54:57.839Z,26.29
2017-08-01T21:57:25.358Z,26.27
2017-08-01T21:59:52.918Z,26.33
2017-08-01T22:02:20.433Z,26.33
2017-08-01T22:04:47.991Z,26.31
2017-08-01T22:07:15.526Z,26.28
2017-08-01T22:09:43.098Z,26.24
2017-08-01T22:12:10.632Z,26.11
2017-08-01T22:14:38.216Z,26.14
2017-08-01T22:17:05.740Z,26.08
2017-08-01T22:19:33.261Z,26.11
2017-08-01T22:22:00.813Z,26.10
2017-08-01T22:24:28.334Z,26.15
2017-08-01T22:26:55.901Z,26.13
2017-08-01T22:29:23.537Z,26.17
2017-08-01T22:31:51.094Z,26.15
2017-08-01T22:34:18.620Z,26.14
2017-08-01T22:36:46.178Z,26.10
2017-08-01T22:39:13.774Z,26.14
2017-08-01T22:41:41.329Z,26.12
2017-08-01T22:44:08.852Z,26.05
2017-08-01T22:46:36.415Z,26.08
2017-08-01T22:49:03.933Z,26.13
2017-08-01T22:51:31.482Z,26.07
2017-08-01T22:53:59.017Z,26.10
2017-08-01T22:56:26.572Z,26.09
2017-08-01T22:58:54.099Z,26.15
2017-08-01T23:01:21.657Z,26.13
2017-08-01T23:03:49.182Z,26.14
2017-08-01T23:06:16.750Z,26.11
2017-08-01T23:08:44.282Z,26.04
2017-08-01T23:11:11.814Z,26.10
2017-08-01T23:13:39.378Z,26.13
2017-08-01T23:16:06.903Z,26.17
2017-08-01T23:18:34.458Z,26.12
2017-08-01T23:21:01.978Z,26.11
2017-08-01T23:23:29.534Z,26.11
2017-08-01T23:25:57.053Z,26.13
2017-08-01T23:28:24.614Z,26.09
2017-08-01T23:30:52.154Z,26.09
2017-08-01T23:33:19.714Z,26.01
2017-08-01T23:35:47.230Z,26.01
2017-08-01T23:38:14.785Z,26.03
2017-08-01T23:40:42.329Z,26.04
2017-08-01T23:43:09.885Z,26.01
2017-08-01T23:45:37.418Z,25.92
2017-08-01T23:48:04.975Z,25.85
2017-08-01T23:50:32.501Z,25.90
2017-08-01T23:53:00.052Z,25.90
2017-08-01T23:55:27.572Z,25.81
2017-08-01T23:57:55.132Z,25.80
